KBDR

Igor I Sikorsky Memorial Airport

Bridgeport, Connecticut, USA
METAR KBDR 132352Z 05009KT 10SM OVC015 01/M01 A3049 RMK AO2 RAB2253E41 SLP325 P0000 60000 T00111006 10017 20006 50005
Observed Flight Rules
Dec-13 @ 23:52 UTC (an hour ago) Marginal Visual Flight Rules
Wind Visibility Clouds
50° at 9 knots 10 miles
  • Overcast at 1,500' AGL
Temperatures Readings Precipitation
Current 1°C / 34°F
Dewpoint -1°C / 30°F
Humidity 87%
Altimeter 30.49" Hg
Pressure 1032.5 hPa
Elevation 7
Current Rain 0.005
METAR KBDR 132352Z 05009KT 10SM OVC015 01/M01 A3049 RMK AO2 RAB2253E41 SLP325 P0000 60000 T00111006 10017 20006 50005
Observed Flight Rules
Dec-13 @ 23:52 UTC
(an hour ago)
MVFR
Wind Visibility
50° at 9 knots 10 miles
Clouds
  • Overcast at 1,500' AGL
Temperature Dewpoint
1°C / 34°F -1°C / 30°F
Humidity Altimeter Pressure
87% 30.49" Hg 1032.5 hPa
Current Rain
0.005